Time;durP1;ratioP1;P1;durP2;ratioP2;P2;SDS_P1;SDS_P2;PMS_P1;PMS_P2;Temp;Humidity;BMP_temperature;BMP_pressure;BME280_temperature;BME280_humidity;BME280_pressure;Samples;Min_cycle;Max_cycle;Signal;HPM_P1;HPM_P2
2023/02/20 00:01:52;;;;;;;116.00;72.03;;;11.60;1.00;;;;;;5114223;28;20160;-48
2023/02/20 00:04:18;;;;;;;;;;;11.60;1.00;;;;;;5099569;28;20023;-51
2023/02/20 00:06:44;;;;;;;122.38;73.00;;;11.50;1.00;;;;;;5114466;28;19909;-50
2023/02/20 00:09:10;;;;;;;127.00;73.25;;;11.60;1.00;;;;;;5113948;28;20072;-53
2023/02/20 00:11:36;;;;;;;118.97;70.35;;;11.70;1.00;;;;;;5114270;28;20069;-51
2023/02/20 00:14:02;;;;;;;115.38;71.30;;;11.70;1.00;;;;;;5113898;28;20102;-52
2023/02/20 00:16:28;;;;;;;122.47;72.50;;;11.70;1.00;;;;;;5098871;28;20114;-51
2023/02/20 00:18:53;;;;;;;129.75;74.93;;;11.60;1.00;;;;;;5114435;28;20491;-50
2023/02/20 00:21:19;;;;;;;123.05;72.22;;;11.50;1.00;;;;;;5114160;28;20504;-51
2023/02/20 00:23:45;;;;;;;124.47;73.95;;;11.50;1.00;;;;;;5099661;28;20052;-52
2023/02/20 00:26:12;;;;;;;131.48;74.28;;;11.50;1.00;;;;;;5114138;28;20102;-52
2023/02/20 00:28:40;;;;;;;123.15;73.20;;;11.50;1.00;;;;;;5112638;28;20031;-52
2023/02/20 00:31:06;;;;;;;131.05;74.78;;;11.50;1.00;;;;;;5112223;28;20016;-54
2023/02/20 00:33:32;;;;;;;124.45;74.63;;;11.50;1.00;;;;;;5106273;28;20497;-50
2023/02/20 00:35:58;;;;;;;129.50;75.20;;;11.40;1.00;;;;;;5113969;28;20055;-53
2023/02/20 00:38:24;;;;;;;125.85;75.90;;;11.40;1.00;;;;;;5104126;28;20077;-52
2023/02/20 00:40:50;;;;;;;125.18;74.88;;;11.40;1.00;;;;;;5113582;28;20031;-54
2023/02/20 00:43:15;;;;;;;128.45;74.93;;;11.40;1.00;;;;;;5113727;28;20464;-53
2023/02/20 00:45:41;;;;;;;115.70;72.15;;;11.50;1.00;;;;;;5113383;28;20043;-52
2023/02/20 00:48:07;;;;;;;128.40;75.30;;;11.50;1.00;;;;;;5113838;28;20124;-52
2023/02/20 00:50:32;;;;;;;117.85;71.22;;;11.60;1.00;;;;;;5112147;28;20053;-55
2023/02/20 00:52:58;;;;;;;122.28;70.20;;;11.50;1.00;;;;;;5113624;28;20507;-54
2023/02/20 00:55:23;;;;;;;124.57;72.53;;;11.50;1.00;;;;;;5113093;28;20099;-52
2023/02/20 00:57:49;;;;;;;125.60;71.72;;;11.50;1.00;;;;;;5113488;28;20110;-52
2023/02/20 01:00:22;;;;;;;123.65;72.18;;;11.50;1.00;;;;;;5113456;28;20041;-53
2023/02/20 01:02:48;;;;;;;122.07;71.25;;;11.50;1.00;;;;;;5113521;28;20051;-52
2023/02/20 01:05:14;;;;;;;117.75;71.13;;;11.40;1.00;;;;;;5113236;28;20051;-52
2023/02/20 01:07:39;;;;;;;119.28;67.78;;;11.40;1.00;;;;;;5099007;28;20018;-55
2023/02/20 01:10:06;;;;;;;125.38;70.30;;;11.40;1.00;;;;;;5113033;28;20026;-55
2023/02/20 01:12:31;;;;;;;117.65;70.63;;;11.40;1.00;;;;;;5113269;28;20113;-55
2023/02/20 01:14:57;;;;;;;117.50;70.43;;;11.50;1.00;;;;;;5113333;28;20453;-52
2023/02/20 01:17:22;;;;;;;117.30;70.03;;;11.40;1.00;;;;;;5112898;28;20385;-52
2023/02/20 01:19:48;;;;;;;122.05;72.05;;;11.30;1.00;;;;;;5113224;28;20031;-53
2023/02/20 01:22:14;;;;;;;127.03;74.00;;;11.30;1.00;;;;;;5112964;28;20024;-52
2023/02/20 01:24:40;;;;;;;120.63;69.80;;;11.30;1.00;;;;;;5098768;28;20102;-52
2023/02/20 01:27:06;;;;;;;115.70;68.85;;;11.30;1.00;;;;;;5113165;28;20392;-53
2023/02/20 01:29:32;;;;;;;110.97;68.25;;;11.30;1.00;;;;;;5112874;28;20037;-55
2023/02/20 01:31:57;;;;;;;117.32;68.75;;;11.40;1.00;;;;;;5112852;28;20030;-52
2023/02/20 01:34:23;;;;;;;120.30;68.80;;;11.30;1.00;;;;;;5112668;28;20108;-53
2023/02/20 01:36:51;;;;;;;119.25;69.85;;;11.30;1.00;;;;;;5112808;28;20055;-51
2023/02/20 01:39:23;;;;;;;123.22;69.40;;;11.30;1.00;;;;;;5111201;28;20016;-55
2023/02/20 01:41:54;;;;;;;114.97;66.85;;;11.30;1.00;;;;;;5112836;28;20055;-53
2023/02/20 01:44:26;;;;;;;119.20;69.30;;;11.30;1.00;;;;;;5112677;28;20028;-52
2023/02/20 01:46:55;;;;;;;117.50;69.20;;;11.30;1.00;;;;;;5106510;27;20030;-53
2023/02/20 01:49:54;;;;;;;117.35;68.55;;;11.30;1.00;;;;;;5119313;27;20568;-53
2023/02/20 01:52:29;;;;;;;114.15;66.80;;;11.30;1.00;;;;;;5112228;28;20027;-55
2023/02/20 01:55:03;;;;;;;113.18;66.20;;;11.30;1.00;;;;;;5111208;28;20036;-53
2023/02/20 01:57:32;;;;;;;117.03;66.68;;;11.30;1.00;;;;;;5098652;28;20103;-51
2023/02/20 02:00:10;;;;;;;116.43;68.00;;;11.20;1.00;;;;;;5112692;28;20081;-54
2023/02/20 02:02:43;;;;;;;113.90;67.38;;;11.20;1.00;;;;;;5098649;28;20063;-52
2023/02/20 02:05:10;;;;;;;111.18;64.78;;;11.20;1.00;;;;;;5112673;28;20023;-53
2023/02/20 02:07:36;;;;;;;113.85;66.05;;;11.20;1.00;;;;;;5106943;28;20143;-52
2023/02/20 02:10:08;;;;;;;113.00;66.20;;;11.20;1.00;;;;;;5107088;28;20055;-54
2023/02/20 02:12:35;;;;;;;115.68;68.82;;;11.20;1.00;;;;;;5119694;27;20378;-54
2023/02/20 02:15:01;;;;;;;112.20;64.80;;;11.20;1.00;;;;;;5126272;27;20084;-52
2023/02/20 02:17:52;;;;;;;116.05;66.82;;;11.10;1.00;;;;;;5115145;28;20019;-53
2023/02/20 02:20:53;;;;;;;118.50;68.65;;;11.10;1.00;;;;;;5112513;28;20035;-52
2023/02/20 02:23:19;;;;;;;115.65;65.35;;;11.10;1.00;;;;;;5105487;28;20034;-54
2023/02/20 02:26:06;;;;;;;107.88;63.80;;;11.10;1.00;;;;;;5116383;28;20028;-51
2023/02/20 02:29:00;;;;;;;114.25;67.03;;;11.10;1.00;;;;;;5115745;28;20108;-53
2023/02/20 02:31:35;;;;;;;113.90;65.40;;;11.00;1.00;;;;;;5104612;28;20039;-53
2023/02/20 02:34:05;;;;;;;;;;;11.00;1.00;;;;;;5116267;28;20164;-53
2023/02/20 02:37:04;;;;;;;111.70;65.97;;;11.00;1.00;;;;;;5115201;27;20336;-53
2023/02/20 02:39:57;;;;;;;114.50;65.88;;;11.00;1.00;;;;;;5115651;28;20148;-54
2023/02/20 02:42:36;;;;;;;117.32;65.20;;;11.00;1.00;;;;;;5115195;28;20035;-52
2023/02/20 02:45:05;;;;;;;114.20;65.32;;;11.00;1.00;;;;;;5115574;28;20019;-51
2023/02/20 02:47:45;;;;;;;115.78;66.18;;;11.00;1.00;;;;;;5103577;27;20020;-52
2023/02/20 02:50:28;;;;;;;115.15;67.20;;;11.10;1.00;;;;;;5094839;28;20044;-56
2023/02/20 02:52:56;;;;;;;118.60;67.68;;;11.10;1.00;;;;;;5099098;27;20081;-53
2023/02/20 02:55:26;;;;;;;115.40;65.88;;;11.00;1.00;;;;;;5114747;28;20043;-55
2023/02/20 02:57:52;;;;;;;117.55;68.25;;;11.00;1.00;;;;;;5115540;28;20020;-51
2023/02/20 03:00:23;;;;;;;116.10;67.43;;;10.90;1.00;;;;;;5114818;28;20026;-51
2023/02/20 03:03:13;;;;;;;118.43;68.57;;;10.90;1.00;;;;;;5103671;28;20106;-53
2023/02/20 03:05:46;;;;;;;121.35;67.95;;;10.90;1.00;;;;;;5114979;27;20077;-51
2023/02/20 03:08:21;;;;;;;116.13;67.18;;;10.90;1.00;;;;;;5114884;27;20115;-52
2023/02/20 03:10:52;;;;;;;123.15;71.07;;;10.90;1.00;;;;;;5114732;28;20085;-52
2023/02/20 03:13:18;;;;;;;123.97;70.68;;;10.80;1.00;;;;;;5114957;28;20110;-50
2023/02/20 03:15:51;;;;;;;122.93;71.05;;;10.80;1.00;;;;;;5115610;28;20394;-51
2023/02/20 03:18:33;;;;;;;118.95;69.90;;;10.70;1.00;;;;;;5115317;28;20020;-53
2023/02/20 03:21:07;;;;;;;116.22;69.72;;;10.70;1.00;;;;;;5114489;28;20019;-50
2023/02/20 03:23:39;;;;;;;127.70;70.78;;;10.80;1.00;;;;;;5103282;28;20457;-52
2023/02/20 03:26:16;;;;;;;125.22;71.32;;;10.80;1.00;;;;;;5112377;27;20055;-52
2023/02/20 03:43:27;;;;;;;;;;;10.80;1.00;;;;;;5102950;28;20491;-50
2023/02/20 03:46:03;;;;;;;129.18;74.28;;;10.70;1.00;;;;;;5106541;28;19904;-50
2023/02/20 03:48:35;;;;;;;130.60;72.95;;;10.80;1.00;;;;;;5113353;28;20114;-52
2023/02/20 03:51:01;;;;;;;137.15;75.20;;;10.70;1.00;;;;;;5114321;28;20422;-51
2023/02/20 03:53:27;;;;;;;134.48;75.47;;;10.70;1.00;;;;;;5114687;28;20427;-48
2023/02/20 03:55:57;;;;;;;134.05;73.70;;;10.70;1.00;;;;;;5114620;28;20063;-50
2023/02/20 03:58:25;;;;;;;139.95;75.38;;;10.80;1.00;;;;;;5109105;28;20127;-50
2023/02/20 04:00:55;;;;;;;138.50;76.43;;;10.70;1.00;;;;;;5114364;28;20029;-50
2023/02/20 04:03:24;;;;;;;128.70;72.35;;;10.70;1.00;;;;;;5113116;28;20024;-54
2023/02/20 04:05:53;;;;;;;139.55;75.68;;;10.70;1.00;;;;;;5114735;28;20032;-51
2023/02/20 04:08:21;;;;;;;132.32;74.90;;;10.70;1.00;;;;;;5114358;28;20060;-50
2023/02/20 04:10:54;;;;;;;141.07;77.85;;;10.70;1.00;;;;;;5114043;28;20016;-49
2023/02/20 04:13:20;;;;;;;134.35;77.57;;;10.60;1.00;;;;;;5114374;27;20024;-51
2023/02/20 04:15:47;;;;;;;138.20;77.45;;;10.70;1.00;;;;;;5114419;28;20486;-50
2023/02/20 04:18:17;;;;;;;140.55;79.25;;;10.60;1.00;;;;;;5113983;28;20477;-52
2023/02/20 04:20:48;;;;;;;136.00;76.45;;;10.50;1.00;;;;;;5112582;28;20122;-53
2023/02/20 04:23:16;;;;;;;134.82;75.22;;;10.70;1.00;;;;;;5114501;28;20020;-50
2023/02/20 04:25:54;;;;;;;138.82;75.82;;;10.70;1.00;;;;;;5112618;28;20024;-54
2023/02/20 04:28:21;;;;;;;151.02;79.78;;;10.60;1.00;;;;;;5113460;28;20027;-53
2023/02/20 04:30:48;;;;;;;128.95;75.10;;;10.60;1.00;;;;;;5114042;28;20027;-54
2023/02/20 04:33:14;;;;;;;141.50;79.68;;;10.70;1.00;;;;;;5113792;28;20496;-50
2023/02/20 04:35:40;;;;;;;138.68;77.63;;;10.70;1.00;;;;;;5113686;28;20038;-50
2023/02/20 04:38:07;;;;;;;142.13;77.38;;;10.70;1.00;;;;;;5113684;28;20016;-52
2023/02/20 04:40:33;;;;;;;138.65;77.40;;;10.70;1.00;;;;;;5113613;28;20059;-53
2023/02/20 04:42:59;;;;;;;144.98;79.53;;;10.60;1.00;;;;;;5113561;27;20100;-51
2023/02/20 04:45:24;;;;;;;142.20;80.32;;;10.60;1.00;;;;;;5113899;28;20028;-52
2023/02/20 04:47:50;;;;;;;138.35;77.82;;;10.60;1.00;;;;;;5112103;28;20027;-53
2023/02/20 04:50:21;;;;;;;148.20;80.45;;;10.60;1.00;;;;;;5113408;28;20100;-52
2023/02/20 04:52:46;;;;;;;147.30;79.90;;;10.60;1.00;;;;;;5112407;28;20031;-53
2023/02/20 04:55:12;;;;;;;154.20;83.20;;;10.50;1.00;;;;;;5113524;28;20023;-54
2023/02/20 04:57:38;;;;;;;149.13;77.70;;;10.60;1.00;;;;;;5113712;28;20423;-50
2023/02/20 05:00:07;;;;;;;151.35;82.38;;;10.60;1.00;;;;;;5112705;28;20027;-53
2023/02/20 05:02:33;;;;;;;139.93;79.75;;;10.50;1.00;;;;;;5099389;28;20039;-51
2023/02/20 05:04:59;;;;;;;150.75;80.25;;;10.50;1.00;;;;;;5113497;28;20058;-50
2023/02/20 05:07:24;;;;;;;146.00;80.15;;;10.50;1.00;;;;;;5113378;28;20020;-51
2023/02/20 05:09:50;;;;;;;151.70;79.68;;;10.50;1.00;;;;;;5113307;28;20035;-52
2023/02/20 05:12:15;;;;;;;142.60;79.47;;;10.50;1.00;;;;;;5113305;28;20107;-51
2023/02/20 05:14:41;;;;;;;149.18;79.90;;;10.50;1.00;;;;;;5113287;28;20039;-50
2023/02/20 05:17:08;;;;;;;150.02;81.68;;;10.60;1.00;;;;;;5113351;28;20040;-52
2023/02/20 05:19:34;;;;;;;145.38;79.18;;;10.60;1.00;;;;;;5113367;28;20020;-51
2023/02/20 05:22:18;;;;;;;154.88;83.35;;;10.50;1.00;;;;;;5113548;28;20032;-52
2023/02/20 05:24:44;;;;;;;150.00;80.35;;;10.40;1.00;;;;;;5099917;28;20110;-50
2023/02/20 05:27:10;;;;;;;152.82;84.80;;;10.50;1.00;;;;;;5113443;28;20027;-51
2023/02/20 05:29:36;;;;;;;151.65;80.75;;;10.50;1.00;;;;;;5112958;28;20085;-51
2023/02/20 05:32:02;;;;;;;154.45;82.95;;;10.60;1.00;;;;;;5098409;28;20437;-51
2023/02/20 05:34:27;;;;;;;153.68;82.30;;;10.50;1.00;;;;;;5112979;28;20024;-50
2023/02/20 05:36:53;;;;;;;157.70;85.65;;;10.50;1.00;;;;;;5113326;28;20023;-51
2023/02/20 05:39:19;;;;;;;152.68;82.20;;;10.40;1.00;;;;;;5111604;28;20380;-51
2023/02/20 05:41:45;;;;;;;155.88;83.35;;;10.50;1.00;;;;;;5104156;28;20039;-55
2023/02/20 05:44:11;;;;;;;156.38;83.63;;;10.60;1.00;;;;;;5106970;28;20019;-51
2023/02/20 05:46:40;;;;;;;158.93;82.90;;;10.60;1.00;;;;;;5112699;28;20027;-51
2023/02/20 05:49:06;;;;;;;159.40;83.22;;;10.60;1.00;;;;;;5111310;28;20015;-53
2023/02/20 05:51:32;;;;;;;146.60;80.65;;;10.60;1.00;;;;;;5106022;28;20039;-50
2023/02/20 05:53:58;;;;;;;155.13;83.72;;;10.60;1.00;;;;;;5105155;28;20023;-53
2023/02/20 05:56:23;;;;;;;156.85;84.82;;;10.50;1.00;;;;;;5112559;28;20035;-53
2023/02/20 05:58:49;;;;;;;155.98;83.90;;;10.50;1.00;;;;;;5107081;28;20022;-50
2023/02/20 06:01:21;;;;;;;157.15;85.65;;;10.50;1.00;;;;;;5098727;28;20019;-50
2023/02/20 06:03:46;;;;;;;162.48;85.03;;;10.40;1.00;;;;;;5112906;28;20042;-53
2023/02/20 06:06:12;;;;;;;151.25;82.55;;;10.40;1.00;;;;;;5112573;28;20484;-51
2023/02/20 06:08:39;;;;;;;144.63;79.80;;;10.50;1.00;;;;;;5102077;28;20055;-52
2023/02/20 06:11:05;;;;;;;152.80;81.32;;;10.60;1.00;;;;;;5109611;28;20019;-51
2023/02/20 06:13:30;;;;;;;155.88;82.93;;;10.60;1.00;;;;;;5111152;28;20026;-53
2023/02/20 06:15:56;;;;;;;160.43;84.15;;;10.60;1.00;;;;;;5112356;28;20473;-54
2023/02/20 06:18:21;;;;;;;152.52;82.68;;;10.60;1.00;;;;;;5112790;28;20024;-50
2023/02/20 06:20:47;;;;;;;159.55;84.43;;;10.60;1.00;;;;;;5112620;28;20069;-51
2023/02/20 06:23:13;;;;;;;162.00;83.43;;;10.60;1.00;;;;;;5110481;28;20534;-52
2023/02/20 06:25:38;;;;;;;160.32;86.47;;;10.80;1.00;;;;;;5112427;28;20495;-50
2023/02/20 06:28:04;;;;;;;152.32;84.47;;;10.70;1.00;;;;;;5100045;28;20047;-57
2023/02/20 06:30:30;;;;;;;150.52;83.28;;;10.80;1.00;;;;;;5112469;28;20039;-53
2023/02/20 06:32:55;;;;;;;144.77;80.45;;;10.80;1.00;;;;;;5112200;28;20034;-55
2023/02/20 06:35:21;;;;;;;149.30;81.72;;;10.80;1.00;;;;;;5112266;28;20092;-53
2023/02/20 06:37:46;;;;;;;152.52;79.93;;;10.80;1.00;;;;;;5082973;28;20031;-50
2023/02/20 06:40:15;;;;;;;149.07;81.88;;;10.80;1.00;;;;;;5111476;28;20034;-54
2023/02/20 06:42:41;;;;;;;158.65;84.47;;;10.90;1.00;;;;;;5112226;28;20516;-52
2023/02/20 06:45:06;;;;;;;155.65;84.03;;;10.90;1.00;;;;;;5112342;28;20052;-54
2023/02/20 06:47:32;;;;;;;144.57;81.03;;;10.90;1.00;;;;;;5112461;28;20046;-55
2023/02/20 06:49:58;;;;;;;142.25;78.35;;;10.90;1.00;;;;;;5111855;28;20043;-54
2023/02/20 06:52:23;;;;;;;143.75;77.03;;;11.00;1.00;;;;;;5113782;28;20020;-52
2023/02/20 06:54:51;;;;;;;148.88;80.38;;;11.00;1.00;;;;;;5114773;28;20555;-54
2023/02/20 06:57:17;;;;;;;150.57;81.18;;;11.10;1.00;;;;;;5115921;28;20016;-52
2023/02/20 06:59:46;;;;;;;147.20;81.93;;;11.10;1.00;;;;;;5115910;28;20030;-53
2023/02/20 07:02:13;;;;;;;145.35;81.43;;;11.10;1.00;;;;;;5115678;27;20384;-55
2023/02/20 07:04:39;;;;;;;148.10;81.55;;;11.10;1.00;;;;;;5114442;28;20023;-55
2023/02/20 07:07:05;;;;;;;148.45;81.55;;;11.20;1.00;;;;;;5115577;28;20026;-52
2023/02/20 07:09:30;;;;;;;144.98;78.93;;;11.20;1.00;;;;;;5115667;28;20103;-52
2023/02/20 07:11:56;;;;;;;151.45;81.32;;;11.30;1.00;;;;;;5115467;28;20442;-56
2023/02/20 07:14:22;;;;;;;139.90;78.88;;;11.20;1.00;;;;;;5113511;28;20543;-50
2023/02/20 07:16:48;;;;;;;148.52;78.80;;;11.30;1.00;;;;;;5114513;28;20027;-55
2023/02/20 07:19:14;;;;;;;139.20;79.15;;;11.30;1.00;;;;;;5115873;28;20469;-51
2023/02/20 07:21:39;;;;;;;142.10;78.15;;;11.30;1.00;;;;;;5115694;28;20106;-52
2023/02/20 07:24:06;;;;;;;143.05;77.30;;;11.40;1.00;;;;;;5109760;28;20469;-52
2023/02/20 07:26:32;;;;;;;142.32;78.45;;;11.40;1.00;;;;;;5101691;28;20021;-54
2023/02/20 07:28:59;;;;;;;130.85;75.90;;;11.40;1.00;;;;;;5095302;28;20034;-55
2023/02/20 07:31:31;;;;;;;138.57;77.90;;;11.50;1.00;;;;;;5114845;28;20023;-54
2023/02/20 07:33:57;;;;;;;129.65;75.43;;;11.50;1.00;;;;;;5113775;28;20048;-55
2023/02/20 07:36:23;;;;;;;137.32;76.75;;;11.50;1.00;;;;;;5113590;28;20073;-53
2023/02/20 07:39:00;;;;;;;136.20;75.72;;;11.50;1.00;;;;;;5115077;27;20023;-54
2023/02/20 07:41:28;;;;;;;135.98;76.55;;;11.60;1.00;;;;;;5114792;28;20031;-51
2023/02/20 07:43:54;;;;;;;130.05;74.20;;;11.60;1.00;;;;;;5115083;28;20119;-51
2023/02/20 07:46:20;;;;;;;141.27;77.03;;;11.60;1.00;;;;;;5100286;28;20106;-50
2023/02/20 07:48:46;;;;;;;137.85;76.10;;;11.70;1.00;;;;;;5112321;28;20523;-53
2023/02/20 07:51:12;;;;;;;136.85;76.30;;;11.70;1.00;;;;;;5114577;28;20047;-51
2023/02/20 07:53:38;;;;;;;127.78;74.45;;;11.70;1.00;;;;;;5113505;28;20020;-55
2023/02/20 07:56:04;;;;;;;131.70;74.13;;;11.60;1.00;;;;;;5115020;28;20032;-56
2023/02/20 07:58:30;;;;;;;135.50;75.97;;;11.60;1.00;;;;;;5114681;28;20031;-51
2023/02/20 08:00:56;;;;;;;134.25;74.18;;;11.70;1.00;;;;;;5114536;28;20184;-56
2023/02/20 08:03:21;;;;;;;131.25;75.15;;;11.70;1.00;;;;;;5112014;28;20373;-56
2023/02/20 08:05:47;;;;;;;132.50;73.78;;;11.80;1.00;;;;;;5114333;28;20034;-52
2023/02/20 08:08:13;;;;;;;128.68;73.15;;;11.80;1.00;;;;;;5114644;28;20047;-61
2023/02/20 08:10:38;;;;;;;119.50;71.22;;;11.80;1.00;;;;;;5114091;28;20078;-60
2023/02/20 08:13:04;;;;;;;130.98;73.47;;;11.90;1.00;;;;;;5114378;28;20015;-60
2023/02/20 08:15:30;;;;;;;123.97;73.55;;;11.90;1.00;;;;;;5114360;28;20118;-60
2023/02/20 08:17:55;;;;;;;128.40;73.82;;;11.90;1.00;;;;;;5114376;28;20357;-61
2023/02/20 08:20:21;;;;;;;124.18;71.93;;;11.90;1.00;;;;;;5114254;28;20095;-60
2023/02/20 08:22:48;;;;;;;130.48;73.53;;;11.90;1.00;;;;;;5114585;28;20026;-61
2023/02/20 08:25:16;;;;;;;131.00;73.13;;;11.90;1.00;;;;;;5114484;28;20115;-60
2023/02/20 08:27:43;;;;;;;120.35;71.70;;;12.00;1.00;;;;;;5114227;28;20062;-61
2023/02/20 08:30:22;;;;;;;118.78;70.75;;;12.00;1.00;;;;;;5104748;28;20047;-56
2023/02/20 08:32:50;;;;;;;130.00;72.05;;;12.00;1.00;;;;;;5110956;28;20016;-59
2023/02/20 08:35:15;;;;;;;130.40;74.57;;;12.00;1.00;;;;;;5100219;28;20114;-57
2023/02/20 08:37:41;;;;;;;126.10;73.10;;;12.00;1.00;;;;;;5114051;28;20115;-58
2023/02/20 08:40:08;;;;;;;139.68;73.60;;;12.00;1.00;;;;;;5113756;28;20030;-58
2023/02/20 08:42:34;;;;;;;124.97;74.63;;;12.00;1.00;;;;;;5097971;28;20028;-59
2023/02/20 08:45:01;;;;;;;123.70;71.05;;;12.00;1.00;;;;;;5107234;28;20020;-59
2023/02/20 08:47:36;;;;;;;125.07;72.30;;;12.10;1.00;;;;;;5106756;28;20024;-59
2023/02/20 08:50:01;;;;;;;;;;;12.00;1.00;;;;;;5099949;28;20382;-56
2023/02/20 08:52:42;;;;;;;126.45;70.35;;;12.00;1.00;;;;;;5112312;28;19903;-57
2023/02/20 08:55:07;;;;;;;121.80;70.88;;;12.10;1.00;;;;;;5099656;28;20027;-56
2023/02/20 08:57:33;;;;;;;128.63;71.30;;;12.10;1.00;;;;;;5106668;28;20530;-54
2023/02/20 08:59:58;;;;;;;117.80;67.57;;;12.00;1.00;;;;;;5106354;28;20067;-58
2023/02/20 09:02:27;;;;;;;124.60;70.70;;;12.00;1.00;;;;;;5113368;27;20473;-56
2023/02/20 09:04:53;;;;;;;127.13;72.72;;;12.00;1.00;;;;;;5095438;28;20110;-59
2023/02/20 09:07:19;;;;;;;123.38;72.10;;;12.10;1.00;;;;;;5113538;27;20110;-54
2023/02/20 09:09:44;;;;;;;116.30;71.55;;;12.20;1.00;;;;;;5113562;28;20452;-58
2023/02/20 09:12:10;;;;;;;124.28;72.05;;;12.20;1.00;;;;;;5113421;28;20432;-58
2023/02/20 09:14:36;;;;;;;128.25;72.28;;;12.20;1.00;;;;;;5113065;28;20042;-57
2023/02/20 09:17:02;;;;;;;120.35;69.15;;;12.20;1.00;;;;;;5113046;28;20035;-61
2023/02/20 09:19:28;;;;;;;117.28;67.38;;;12.20;1.00;;;;;;5103645;28;20118;-58
2023/02/20 09:21:54;;;;;;;111.75;68.22;;;12.20;1.00;;;;;;5111601;28;20540;-56
2023/02/20 09:24:19;;;;;;;117.55;67.40;;;12.30;1.00;;;;;;5113130;28;20020;-59
2023/02/20 09:26:45;;;;;;;105.70;64.53;;;12.30;1.00;;;;;;5113028;28;20047;-56
2023/02/20 09:29:10;;;;;;;102.38;61.53;;;12.30;1.00;;;;;;5113200;28;20023;-53
2023/02/20 09:31:36;;;;;;;112.07;64.15;;;12.30;1.00;;;;;;5106352;28;20019;-51
2023/02/20 09:34:03;;;;;;;112.50;65.70;;;12.40;1.00;;;;;;5104709;28;20110;-56
2023/02/20 09:36:29;;;;;;;116.82;68.38;;;12.40;1.00;;;;;;5111433;28;20437;-55
2023/02/20 09:38:54;;;;;;;111.10;67.70;;;12.30;1.00;;;;;;5112871;28;20034;-56
2023/02/20 09:41:40;;;;;;;109.07;65.35;;;12.20;1.00;;;;;;5112553;28;20038;-54
2023/02/20 09:44:24;;;;;;;108.80;64.18;;;12.30;1.00;;;;;;5112711;28;20032;-54
2023/02/20 09:46:53;;;;;;;119.10;70.70;;;12.40;1.00;;;;;;5098857;28;20130;-56
2023/02/20 09:49:24;;;;;;;122.90;71.05;;;12.50;1.00;;;;;;5112742;28;20047;-53
2023/02/20 09:52:00;;;;;;;114.40;67.60;;;12.60;1.00;;;;;;5102273;28;20390;-56
2023/02/20 09:54:57;;;;;;;111.72;67.53;;;12.50;1.00;;;;;;5107173;28;20062;-55
2023/02/20 09:57:25;;;;;;;107.38;62.92;;;12.60;1.00;;;;;;5111732;28;20040;-58
2023/02/20 10:00:14;;;;;;;116.30;65.15;;;12.70;1.00;;;;;;5109467;28;20031;-57
2023/02/20 10:02:56;;;;;;;106.50;61.78;;;12.70;1.00;;;;;;5095030;28;20040;-58
2023/02/20 10:05:25;;;;;;;109.53;62.55;;;12.80;1.00;;;;;;5107780;28;20027;-56
2023/02/20 10:07:51;;;;;;;95.47;58.40;;;12.80;1.00;;;;;;5112361;28;20485;-59
2023/02/20 10:10:20;;;;;;;97.30;57.38;;;12.80;1.00;;;;;;5112266;28;20030;-57
2023/02/20 10:13:16;;;;;;;103.03;59.67;;;12.80;1.00;;;;;;5097301;28;20050;-59
2023/02/20 10:15:58;;;;;;;107.75;63.33;;;12.90;1.00;;;;;;5104478;28;20118;-56
2023/02/20 10:18:33;;;;;;;108.18;62.90;;;13.00;1.00;;;;;;5108427;28;20465;-57
2023/02/20 10:21:16;;;;;;;106.40;63.95;;;13.00;1.00;;;;;;5111006;28;20047;-58
2023/02/20 10:23:47;;;;;;;116.40;67.43;;;13.10;1.00;;;;;;5112694;28;20098;-56
2023/02/20 10:26:27;;;;;;;118.50;67.93;;;13.10;1.00;;;;;;5113249;28;20110;-56
2023/02/20 10:28:57;;;;;;;108.97;67.03;;;13.20;1.00;;;;;;5116655;28;20030;-64
2023/02/20 10:31:40;;;;;;;111.85;66.00;;;13.20;1.00;;;;;;5116874;28;20019;-61
2023/02/20 10:34:17;;;;;;;108.35;66.38;;;13.30;1.00;;;;;;5116566;28;20108;-60
2023/02/20 10:36:47;;;;;;;115.38;66.82;;;13.20;1.00;;;;;;5116462;28;20069;-62
2023/02/20 10:39:16;;;;;;;110.75;66.57;;;13.30;1.00;;;;;;5116133;28;20376;-51
2023/02/20 10:42:00;;;;;;;109.82;65.32;;;13.30;1.00;;;;;;5115790;28;20031;-57
2023/02/20 10:44:34;;;;;;;113.55;65.85;;;13.40;1.00;;;;;;5102473;28;20069;-59
2023/02/20 10:47:44;;;;;;;98.28;60.53;;;13.50;1.00;;;;;;5114379;28;20076;-59
2023/02/20 10:50:35;;;;;;;100.90;61.13;;;13.50;1.00;;;;;;5079790;28;20165;-57
2023/02/20 10:53:14;;;;;;;98.18;60.53;;;13.60;1.00;;;;;;5105494;28;20023;-59
2023/02/20 10:55:47;;;;;;;101.03;62.50;;;13.60;1.00;;;;;;5111465;27;20028;-54
2023/02/20 10:58:29;;;;;;;105.43;62.63;;;13.50;1.00;;;;;;5114650;27;20028;-51
2023/02/20 11:01:01;;;;;;;102.80;63.83;;;13.60;1.00;;;;;;5115126;28;20027;-60
2023/02/20 11:03:47;;;;;;;109.55;62.95;;;13.80;1.00;;;;;;5114562;27;20116;-60
2023/02/20 11:06:19;;;;;;;102.72;61.55;;;13.90;1.00;;;;;;5102607;28;20099;-60
2023/02/20 11:08:46;;;;;;;108.25;63.78;;;14.00;1.00;;;;;;5114812;28;20028;-60
2023/02/20 11:11:33;;;;;;;99.45;58.58;;;14.20;1.00;;;;;;5114380;28;20031;-59
2023/02/20 11:14:14;;;;;;;107.93;64.25;;;14.30;1.00;;;;;;5099045;28;20320;-59
2023/02/20 11:16:57;;;;;;;109.72;63.95;;;14.50;1.00;;;;;;5114917;28;20558;-59
2023/02/20 11:19:45;;;;;;;102.18;64.13;;;14.50;1.00;;;;;;5114371;28;20030;-59
2023/02/20 11:22:11;;;;;;;102.28;60.45;;;14.50;1.00;;;;;;5112983;28;20035;-59
2023/02/20 11:24:39;;;;;;;99.95;60.75;;;14.10;1.00;;;;;;5114418;28;20035;-59
2023/02/20 11:27:21;;;;;;;96.65;59.50;;;14.10;1.00;;;;;;5113464;28;20028;-67
2023/02/20 11:29:53;;;;;;;94.55;60.35;;;14.20;1.00;;;;;;5110012;28;20106;-66
2023/02/20 11:32:19;;;;;;;96.65;59.10;;;14.20;1.00;;;;;;5114034;28;20153;-69
2023/02/20 11:34:45;;;;;;;101.40;60.55;;;14.40;1.00;;;;;;5114096;28;20118;-69
2023/02/20 11:37:12;;;;;;;100.18;60.00;;;14.40;1.00;;;;;;5107224;28;20028;-68
2023/02/20 11:39:44;;;;;;;94.93;59.25;;;14.40;1.00;;;;;;5110344;27;20028;-69
2023/02/20 11:42:19;;;;;;;99.15;60.30;;;14.40;1.00;;;;;;5114896;28;20495;-68
2023/02/20 11:44:47;;;;;;;98.03;57.83;;;14.40;1.00;;;;;;5114676;28;20038;-69
2023/02/20 11:47:22;;;;;;;96.55;58.42;;;14.40;1.00;;;;;;5113475;28;20035;-56
2023/02/20 11:49:49;;;;;;;105.90;63.47;;;14.50;1.00;;;;;;5114839;28;20042;-56
2023/02/20 11:52:20;;;;;;;103.35;66.05;;;14.60;1.00;;;;;;5114559;28;20400;-55
2023/02/20 11:55:06;;;;;;;102.93;63.00;;;14.70;1.00;;;;;;5114955;28;20094;-54
2023/02/20 11:57:34;;;;;;;100.80;62.75;;;14.80;1.00;;;;;;5100830;28;20419;-56
2023/02/20 12:00:11;;;;;;;97.93;61.95;;;14.90;1.00;;;;;;5101471;28;20020;-56
2023/02/20 12:02:47;;;;;;;103.85;63.47;;;15.10;1.00;;;;;;5100641;28;20047;-55
2023/02/20 12:05:14;;;;;;;102.13;62.25;;;15.20;1.00;;;;;;5114545;28;20028;-56
2023/02/20 12:07:41;;;;;;;105.30;64.85;;;15.30;1.00;;;;;;5114515;27;20104;-54
2023/02/20 12:10:22;;;;;;;106.78;66.90;;;15.30;1.00;;;;;;5099186;27;20432;-57
2023/02/20 12:12:48;;;;;;;112.38;66.43;;;15.20;1.00;;;;;;5113106;28;20376;-54
2023/02/20 12:15:16;;;;;;;115.25;69.47;;;15.30;1.00;;;;;;5105755;28;20440;-56
2023/02/20 12:18:13;;;;;;;109.57;68.80;;;15.30;1.00;;;;;;5113346;28;20438;-57
2023/02/20 12:20:50;;;;;;;104.32;63.72;;;15.40;1.00;;;;;;5101008;28;20145;-56
2023/02/20 12:23:21;;;;;;;102.25;63.72;;;15.50;1.00;;;;;;5113022;28;20504;-56
2023/02/20 12:26:05;;;;;;;102.28;64.65;;;15.50;1.00;;;;;;5111922;28;20138;-56
2023/02/20 12:29:04;;;;;;;106.93;68.03;;;15.60;1.00;;;;;;5113421;28;20110;-53
2023/02/20 12:32:04;;;;;;;102.70;65.95;;;15.70;1.00;;;;;;5097935;28;20451;-54
2023/02/20 12:34:45;;;;;;;103.70;66.88;;;16.00;1.00;;;;;;5102703;28;20058;-55
2023/02/20 12:37:40;;;;;;;103.38;63.88;;;16.20;1.00;;;;;;5113050;28;20060;-55
2023/02/20 12:40:38;;;;;;;101.85;63.75;;;16.20;1.00;;;;;;5111160;28;20028;-56
2023/02/20 12:43:22;;;;;;;93.82;62.10;;;16.20;1.00;;;;;;5104711;28;20050;-56
2023/02/20 12:46:12;;;;;;;96.63;62.25;;;16.20;1.00;;;;;;5112639;28;20062;-55
2023/02/20 12:48:44;;;;;;;96.78;63.28;;;16.10;1.00;;;;;;5112895;28;20059;-53
2023/02/20 12:51:27;;;;;;;99.97;64.97;;;16.10;1.00;;;;;;5111468;28;20469;-54
2023/02/20 12:54:17;;;;;;;101.25;64.97;;;16.00;1.00;;;;;;5112631;28;20077;-54
2023/02/20 12:56:58;;;;;;;95.05;62.55;;;15.90;1.00;;;;;;5110820;28;20040;-55
2023/02/20 13:00:01;;;;;;;98.05;61.55;;;15.80;1.00;;;;;;5112507;28;20031;-55
2023/02/20 13:02:38;;;;;;;101.45;62.30;;;15.70;1.00;;;;;;5107524;28;20071;-53